createdAt,value
2018-06-17T00:00:49.503Z,17.30
2018-06-17T00:03:18.045Z,17.30
2018-06-17T00:05:46.518Z,17.30
2018-06-17T00:08:14.953Z,17.30
2018-06-17T00:10:43.390Z,17.40
2018-06-17T00:13:11.889Z,17.30
2018-06-17T00:15:40.321Z,17.30
2018-06-17T00:18:08.827Z,17.20
2018-06-17T00:20:37.267Z,17.20
2018-06-17T00:23:05.754Z,17.20
2018-06-17T00:25:34.589Z,17.20
2018-06-17T00:28:03.029Z,17.20
2018-06-17T00:30:31.490Z,17.20
2018-06-17T00:32:59.990Z,17.30
2018-06-17T00:37:56.809Z,17.30
2018-06-17T00:40:25.269Z,17.30
2018-06-17T00:42:54.262Z,17.30
2018-06-17T00:45:22.766Z,17.30
2018-06-17T00:47:51.246Z,17.40
2018-06-17T00:50:19.976Z,17.40
2018-06-17T00:52:48.471Z,17.40
2018-06-17T00:57:51.000Z,17.30
2018-06-17T01:00:20.570Z,17.30
2018-06-17T01:05:17.753Z,17.30
2018-06-17T01:07:46.352Z,17.30
2018-06-17T01:10:14.850Z,17.30
2018-06-17T01:12:43.301Z,17.30
2018-06-17T01:15:11.781Z,17.30
2018-06-17T01:17:40.230Z,17.30
2018-06-17T01:20:09.360Z,17.30
2018-06-17T01:22:38.426Z,17.20
2018-06-17T01:25:07.090Z,17.20
2018-06-17T01:27:35.525Z,17.20
2018-06-17T01:30:04.095Z,17.10
2018-06-17T01:35:00.909Z,17.10
2018-06-17T01:37:29.405Z,17.10
2018-06-17T01:39:57.853Z,17.00
2018-06-17T01:42:26.453Z,17.00
2018-06-17T01:44:54.962Z,17.10
2018-06-17T01:47:23.395Z,17.00
2018-06-17T01:49:51.841Z,17.10
2018-06-17T01:54:48.721Z,17.00
2018-06-17T01:57:17.176Z,17.10
2018-06-17T01:59:45.629Z,17.10
2018-06-17T02:02:14.054Z,17.10
2018-06-17T02:04:47.806Z,17.10
2018-06-17T02:07:21.703Z,17.10
2018-06-17T02:09:55.463Z,17.20
2018-06-17T02:12:24.139Z,17.30
2018-06-17T02:14:56.292Z,17.30
2018-06-17T02:17:25.827Z,17.30
2018-06-17T02:22:23.259Z,17.20
2018-06-17T02:24:51.685Z,17.20
2018-06-17T02:27:20.473Z,17.20
2018-06-17T02:29:48.953Z,17.20
2018-06-17T02:32:17.410Z,17.10
2018-06-17T02:34:45.865Z,17.10
2018-06-17T02:37:14.372Z,17.10
2018-06-17T02:39:42.839Z,17.00
2018-06-17T02:42:11.551Z,17.10
2018-06-17T02:44:40.030Z,17.10
2018-06-17T02:47:14.066Z,17.00
2018-06-17T02:49:45.189Z,17.00
2018-06-17T02:52:19.132Z,17.00
2018-06-17T02:57:17.745Z,17.00
2018-06-17T02:59:46.579Z,17.00
2018-06-17T03:02:15.310Z,17.00
2018-06-17T03:04:43.806Z,17.00
2018-06-17T03:07:12.451Z,16.90
2018-06-17T03:09:40.924Z,16.90
2018-06-17T03:12:09.415Z,16.90
2018-06-17T03:14:37.903Z,16.90
2018-06-17T03:17:06.385Z,16.90
2018-06-17T03:19:34.846Z,16.90
2018-06-17T03:22:03.557Z,17.00
2018-06-17T03:24:37.261Z,17.00
2018-06-17T03:27:11.056Z,17.00
2018-06-17T03:29:44.739Z,17.00
2018-06-17T03:32:18.792Z,17.00
2018-06-17T03:34:51.428Z,17.00
2018-06-17T03:37:19.917Z,17.10
2018-06-17T03:39:48.421Z,17.10
2018-06-17T03:42:16.897Z,17.10
2018-06-17T03:44:45.329Z,17.00
2018-06-17T03:47:13.797Z,17.00
2018-06-17T03:49:42.257Z,17.00
2018-06-17T03:52:10.677Z,17.00
2018-06-17T03:54:39.138Z,17.00
2018-06-17T03:57:07.622Z,17.00
2018-06-17T03:59:36.129Z,17.00
2018-06-17T04:02:04.581Z,17.10
2018-06-17T04:07:05.472Z,17.00
2018-06-17T04:09:33.914Z,17.10
2018-06-17T04:12:02.655Z,16.90
2018-06-17T04:14:31.082Z,17.00
2018-06-17T04:17:03.741Z,17.10
2018-06-17T04:19:32.169Z,17.20
2018-06-17T04:22:00.601Z,17.30
2018-06-17T04:24:29.119Z,17.30
2018-06-17T04:29:25.733Z,17.20
2018-06-17T04:31:54.181Z,17.30
2018-06-17T04:34:22.650Z,17.10
2018-06-17T04:39:19.242Z,17.00
2018-06-17T04:41:47.704Z,17.00
2018-06-17T04:44:16.174Z,17.00
2018-06-17T04:46:44.849Z,16.90
2018-06-17T04:51:41.641Z,16.70
2018-06-17T04:54:10.130Z,16.60
2018-06-17T04:56:38.606Z,16.60
2018-06-17T04:59:07.045Z,16.70
2018-06-17T05:01:35.992Z,16.70
2018-06-17T05:04:04.566Z,16.70
2018-06-17T05:06:33.009Z,16.80
2018-06-17T05:09:01.489Z,16.80
2018-06-17T05:13:58.135Z,16.90
2018-06-17T05:16:26.609Z,16.80
2018-06-17T05:18:55.104Z,16.80
2018-06-17T05:21:23.754Z,16.70
2018-06-17T05:23:52.242Z,16.60
2018-06-17T05:26:20.752Z,16.50
2018-06-17T05:28:49.182Z,16.50
2018-06-17T05:31:17.652Z,16.60
2018-06-17T05:33:46.183Z,16.60
2018-06-17T05:36:14.656Z,16.60
2018-06-17T05:38:43.166Z,16.60
2018-06-17T05:41:11.650Z,16.70
2018-06-17T05:46:08.279Z,16.60
2018-06-17T05:48:36.766Z,16.50
2018-06-17T05:51:05.566Z,16.60
2018-06-17T05:53:33.998Z,16.60
2018-06-17T05:56:02.681Z,16.70
2018-06-17T05:58:31.251Z,16.60
2018-06-17T06:00:59.694Z,16.70
2018-06-17T06:03:28.189Z,16.80
2018-06-17T06:08:25.095Z,16.70
2018-06-17T06:10:53.555Z,16.70
2018-06-17T06:13:22.038Z,16.60
2018-06-17T06:15:50.488Z,16.60
2018-06-17T06:18:18.949Z,16.60
2018-06-17T06:20:48.090Z,16.60
2018-06-17T06:23:16.582Z,16.60
2018-06-17T06:25:45.619Z,16.70
2018-06-17T06:28:14.074Z,16.80
2018-06-17T06:30:44.197Z,16.80
2018-06-17T06:33:13.051Z,17.00
2018-06-17T06:35:42.242Z,17.20
2018-06-17T06:38:11.036Z,17.30
2018-06-17T06:43:08.580Z,17.70
2018-06-17T06:45:37.062Z,17.90
2018-06-17T06:48:05.716Z,18.00
2018-06-17T06:50:34.169Z,18.10
2018-06-17T06:53:02.663Z,18.10
2018-06-17T06:55:31.230Z,18.20
2018-06-17T07:00:28.106Z,18.30
2018-06-17T07:03:07.866Z,18.50
2018-06-17T07:05:47.754Z,18.60
2018-06-17T07:08:27.509Z,18.90
2018-06-17T07:10:55.977Z,19.00
2018-06-17T07:13:24.401Z,19.00
2018-06-17T07:16:04.133Z,19.20
2018-06-17T07:18:34.769Z,19.50
2018-06-17T07:21:03.313Z,19.70
2018-06-17T07:23:31.794Z,19.80
2018-06-17T07:26:47.235Z,19.50
2018-06-17T07:29:29.249Z,19.00
2018-06-17T07:31:57.746Z,18.70
2018-06-17T07:34:26.603Z,18.70
2018-06-17T07:36:55.109Z,19.00
2018-06-17T07:41:36.197Z,19.40
2018-06-17T07:44:04.777Z,19.40
2018-06-17T07:46:33.383Z,19.50
2018-06-17T07:49:53.912Z,19.70
2018-06-17T07:52:35.026Z,20.10
2018-06-17T07:55:03.557Z,20.60
2018-06-17T07:57:33.235Z,20.50
2018-06-17T08:00:01.705Z,20.40
2018-06-17T08:07:26.573Z,20.20
2018-06-17T08:09:55.049Z,20.40
2018-06-17T08:12:23.588Z,20.50
2018-06-17T08:14:52.042Z,20.30
2018-06-17T08:17:20.500Z,20.40
2018-06-17T08:19:48.937Z,20.70
2018-06-17T08:22:17.381Z,20.80
2018-06-17T08:24:45.879Z,20.70
2018-06-17T08:27:14.318Z,20.60
2018-06-17T08:29:43.004Z,20.60
2018-06-17T08:32:11.705Z,20.80
2018-06-17T08:34:40.169Z,20.90
2018-06-17T08:37:08.606Z,20.50
2018-06-17T08:39:37.051Z,20.70
2018-06-17T08:42:05.526Z,20.60
2018-06-17T08:44:33.965Z,20.50
2018-06-17T08:47:02.425Z,20.60
2018-06-17T08:49:30.867Z,20.60
2018-06-17T08:51:59.326Z,20.80
2018-06-17T08:56:55.963Z,20.40
2018-06-17T08:59:24.422Z,20.40
2018-06-17T09:01:52.913Z,20.60
2018-06-17T09:04:21.623Z,20.70
2018-06-17T09:06:50.083Z,20.60
2018-06-17T09:09:18.575Z,20.60
2018-06-17T09:11:47.009Z,20.80
2018-06-17T09:14:15.479Z,20.70
2018-06-17T09:16:43.987Z,20.50
2018-06-17T09:19:12.831Z,20.50
2018-06-17T09:21:41.338Z,20.40
2018-06-17T09:24:09.815Z,20.60
2018-06-17T09:26:38.285Z,20.50
2018-06-17T09:29:06.770Z,20.60
2018-06-17T09:31:35.309Z,21.10
2018-06-17T09:34:04.413Z,21.20
2018-06-17T09:36:32.980Z,21.10
2018-06-17T09:39:01.455Z,21.10
2018-06-17T09:41:29.986Z,21.10
2018-06-17T09:43:58.526Z,21.20
2018-06-17T09:46:27.012Z,21.30
2018-06-17T09:48:55.573Z,21.20
2018-06-17T09:51:24.033Z,21.10
2018-06-17T09:56:20.636Z,21.10
2018-06-17T09:58:49.109Z,21.10
2018-06-17T10:01:18.141Z,21.10
2018-06-17T10:03:46.881Z,20.80
2018-06-17T10:06:15.360Z,20.50
2018-06-17T10:08:43.817Z,20.50
2018-06-17T10:11:12.302Z,20.60
2018-06-17T10:16:12.147Z,20.50
2018-06-17T10:18:40.957Z,20.70
2018-06-17T10:21:09.491Z,20.70
2018-06-17T10:23:37.958Z,21.10
2018-06-17T10:26:06.457Z,21.20
2018-06-17T10:28:35.457Z,21.30
2018-06-17T10:31:05.503Z,21.40
2018-06-17T10:33:34.878Z,21.20
2018-06-17T10:36:03.371Z,21.10
2018-06-17T10:38:31.907Z,21.80
2018-06-17T10:41:00.361Z,22.40
2018-06-17T10:43:30.243Z,22.70
2018-06-17T10:45:58.737Z,22.30
2018-06-17T10:48:27.244Z,22.10
2018-06-17T10:50:55.773Z,22.20
2018-06-17T10:53:24.259Z,22.30
2018-06-17T10:55:53.007Z,22.50
2018-06-17T10:58:21.298Z,22.70
2018-06-17T11:00:49.758Z,22.90
2018-06-17T11:03:18.270Z,23.00
2018-06-17T11:05:46.755Z,22.80
2018-06-17T11:08:15.334Z,22.60
2018-06-17T11:10:44.507Z,22.30
2018-06-17T11:13:14.102Z,22.10
2018-06-17T11:15:42.722Z,21.80
2018-06-17T11:18:11.231Z,21.40
2018-06-17T11:20:39.748Z,21.10
2018-06-17T11:23:08.255Z,21.10
2018-06-17T11:25:36.729Z,21.20
2018-06-17T11:28:05.213Z,21.60
2018-06-17T11:30:33.686Z,22.10
2018-06-17T11:33:02.541Z,22.40
2018-06-17T11:35:31.034Z,22.70
2018-06-17T11:37:59.521Z,22.50
2018-06-17T11:40:28.583Z,22.80
2018-06-17T11:42:57.529Z,22.80
2018-06-17T11:45:26.712Z,22.90
2018-06-17T11:47:55.208Z,22.80
2018-06-17T11:50:23.753Z,22.10
2018-06-17T11:52:52.283Z,21.90
2018-06-17T11:55:20.770Z,21.90
2018-06-17T11:57:49.233Z,21.90
2018-06-17T12:00:17.933Z,22.00
2018-06-17T12:02:46.407Z,22.30
2018-06-17T12:05:14.918Z,22.60
2018-06-17T12:07:43.462Z,23.00
2018-06-17T12:10:11.927Z,23.10
2018-06-17T12:15:08.536Z,22.80
2018-06-17T12:17:37.025Z,22.90
2018-06-17T12:20:05.595Z,22.70
2018-06-17T12:22:34.029Z,22.50
2018-06-17T12:27:30.698Z,22.50
2018-06-17T12:29:59.196Z,22.40
2018-06-17T12:32:27.666Z,22.60
2018-06-17T12:34:56.348Z,22.50
2018-06-17T12:37:24.861Z,22.20
2018-06-17T12:39:53.313Z,22.10
2018-06-17T12:42:21.825Z,22.10
2018-06-17T12:44:50.513Z,22.20
2018-06-17T12:47:19.425Z,22.30
2018-06-17T12:49:48.236Z,22.60
2018-06-17T12:54:44.917Z,22.50
2018-06-17T12:57:13.399Z,22.30
2018-06-17T12:59:41.901Z,22.20
2018-06-17T13:02:10.383Z,21.90
2018-06-17T13:04:39.107Z,22.00
2018-06-17T13:07:07.637Z,22.00
2018-06-17T13:14:32.444Z,22.50
2018-06-17T13:17:00.955Z,22.60
2018-06-17T13:21:57.833Z,22.60
2018-06-17T13:24:26.299Z,22.40
2018-06-17T13:26:54.780Z,22.20
2018-06-17T13:29:23.253Z,22.30
2018-06-17T13:34:19.875Z,22.30
2018-06-17T13:36:48.427Z,22.30
2018-06-17T13:39:16.856Z,22.40
2018-06-17T13:41:45.308Z,22.50
2018-06-17T13:44:13.777Z,22.70
2018-06-17T13:46:47.790Z,22.80
2018-06-17T13:49:16.313Z,23.10
2018-06-17T13:51:44.777Z,23.30
2018-06-17T13:54:13.267Z,23.00
2018-06-17T13:56:41.739Z,22.60
2018-06-17T13:59:10.266Z,22.40
2018-06-17T14:04:07.028Z,22.60
2018-06-17T14:09:06.061Z,23.10
2018-06-17T14:11:34.587Z,23.10
2018-06-17T14:14:03.337Z,22.90
2018-06-17T14:16:31.812Z,22.60
2018-06-17T14:19:00.317Z,22.10
2018-06-17T14:21:28.824Z,22.00
2018-06-17T14:23:57.378Z,22.10
2018-06-17T14:26:26.390Z,22.40
2018-06-17T14:28:54.849Z,22.50
2018-06-17T14:31:23.335Z,22.50
2018-06-17T14:33:51.784Z,22.30
2018-06-17T14:36:20.240Z,22.30
2018-06-17T14:38:48.709Z,22.40
2018-06-17T14:41:17.444Z,22.40
2018-06-17T14:43:51.467Z,22.10
2018-06-17T14:46:25.360Z,21.80
2018-06-17T14:48:59.327Z,21.40
2018-06-17T14:51:33.195Z,21.10
2018-06-17T14:54:01.666Z,20.90
2018-06-17T14:56:30.146Z,21.10
2018-06-17T14:58:58.689Z,21.20
2018-06-17T15:01:27.152Z,21.10
2018-06-17T15:03:55.632Z,21.10
2018-06-17T15:06:24.157Z,21.20
2018-06-17T15:08:52.593Z,21.10
2018-06-17T15:11:21.102Z,21.00
2018-06-17T15:13:49.573Z,21.00
2018-06-17T15:16:18.036Z,21.00
2018-06-17T15:18:46.485Z,20.80
2018-06-17T15:21:15.345Z,20.90
2018-06-17T15:23:44.268Z,21.00
2018-06-17T15:26:12.755Z,20.90
2018-06-17T15:28:41.262Z,20.90
2018-06-17T15:31:15.096Z,20.90
2018-06-17T15:33:48.999Z,20.90
2018-06-17T15:36:23.079Z,20.70
2018-06-17T15:38:54.979Z,20.50
2018-06-17T15:41:24.343Z,20.50
2018-06-17T15:43:53.392Z,20.50
2018-06-17T15:46:21.886Z,20.40
2018-06-17T15:48:50.341Z,20.40
2018-06-17T15:51:18.823Z,20.30
2018-06-17T15:53:47.418Z,20.10
2018-06-17T15:56:15.996Z,20.10
2018-06-17T15:58:44.426Z,20.20
2018-06-17T16:01:12.897Z,20.20
2018-06-17T16:06:09.485Z,20.20
2018-06-17T16:08:37.947Z,20.40
2018-06-17T16:11:06.404Z,20.60
2018-06-17T16:13:40.131Z,20.70
2018-06-17T16:16:13.910Z,20.50
2018-06-17T16:18:47.666Z,20.50
2018-06-17T16:21:16.113Z,20.50
2018-06-17T16:26:12.768Z,20.60
2018-06-17T16:33:37.566Z,20.80
2018-06-17T16:36:06.003Z,20.70
2018-06-17T16:38:34.437Z,20.60
2018-06-17T16:41:02.892Z,20.60
2018-06-17T16:43:31.326Z,20.20
2018-06-17T16:46:00.008Z,20.00
2018-06-17T16:51:01.937Z,19.80
2018-06-17T16:53:35.985Z,19.80
2018-06-17T16:56:09.804Z,19.70
2018-06-17T17:01:12.380Z,19.80
2018-06-17T17:03:40.833Z,19.80
2018-06-17T17:06:09.271Z,19.70
2018-06-17T17:11:05.966Z,20.00
2018-06-17T17:13:34.407Z,20.00
2018-06-17T17:16:02.874Z,20.00
2018-06-17T17:18:31.317Z,20.20
2018-06-17T17:20:59.753Z,20.20
2018-06-17T17:23:28.294Z,20.10
2018-06-17T17:25:56.654Z,19.80
2018-06-17T17:28:25.113Z,19.70
2018-06-17T17:30:53.581Z,19.60
2018-06-17T17:36:01.875Z,19.50
2018-06-17T17:38:35.886Z,19.50
2018-06-17T17:41:05.525Z,19.50
2018-06-17T17:43:33.985Z,19.50
2018-06-17T17:46:07.770Z,19.60
2018-06-17T17:48:36.218Z,19.60
2018-06-17T17:51:04.710Z,19.60
2018-06-17T17:53:33.256Z,19.50
2018-06-17T17:56:01.689Z,19.30
2018-06-17T17:58:30.153Z,19.40
2018-06-17T18:00:58.677Z,19.40
2018-06-17T18:03:27.132Z,19.30
2018-06-17T18:05:55.639Z,19.30
2018-06-17T18:08:24.106Z,19.20
2018-06-17T18:10:52.761Z,19.00
2018-06-17T18:13:21.214Z,19.00
2018-06-17T18:15:49.648Z,18.90
2018-06-17T18:18:18.148Z,18.80
2018-06-17T18:20:46.623Z,18.70
2018-06-17T18:23:15.077Z,18.70
2018-06-17T18:25:48.802Z,18.70
2018-06-17T18:28:22.410Z,18.60
2018-06-17T18:31:01.018Z,18.60
2018-06-17T18:33:34.678Z,18.60
2018-06-17T18:36:07.996Z,18.60
2018-06-17T18:38:38.031Z,18.60
2018-06-17T18:41:06.494Z,18.70
2018-06-17T18:43:35.021Z,18.80
2018-06-17T18:46:03.486Z,18.80
2018-06-17T18:48:31.918Z,18.80
2018-06-17T18:51:00.599Z,18.70
2018-06-17T18:53:29.032Z,18.60
2018-06-17T18:55:57.502Z,18.60
2018-06-17T18:58:25.951Z,18.60
2018-06-17T19:03:22.701Z,18.50
2018-06-17T19:05:51.205Z,18.40
2018-06-17T19:10:58.391Z,18.40
2018-06-17T19:13:32.117Z,18.30
2018-06-17T19:16:06.916Z,18.30
2018-06-17T19:18:35.404Z,18.30
2018-06-17T19:21:03.996Z,18.40
2018-06-17T19:23:32.483Z,18.30
2018-06-17T19:26:00.958Z,18.30
2018-06-17T19:28:29.417Z,18.20
2018-06-17T19:30:57.894Z,18.20
2018-06-17T19:33:26.369Z,18.10
2018-06-17T19:35:54.870Z,18.10
2018-06-17T19:38:23.545Z,18.00
2018-06-17T19:40:52.028Z,18.00
2018-06-17T19:43:20.540Z,17.90
2018-06-17T19:45:48.965Z,17.80
2018-06-17T19:48:17.406Z,17.80
2018-06-17T19:50:51.272Z,17.80
2018-06-17T19:53:25.226Z,17.60
2018-06-17T19:55:59.090Z,17.60
2018-06-17T19:58:33.465Z,17.60
2018-06-17T20:01:03.655Z,17.70
2018-06-17T20:03:32.150Z,17.60
2018-06-17T20:06:00.700Z,17.60
2018-06-17T20:08:29.191Z,17.60
2018-06-17T20:10:57.657Z,17.60
2018-06-17T20:13:26.158Z,17.60
2018-06-17T20:15:54.634Z,17.60
2018-06-17T20:18:23.077Z,17.60
2018-06-17T20:20:51.567Z,17.50
2018-06-17T20:23:20.022Z,17.60
2018-06-17T20:28:16.603Z,17.50
2018-06-17T20:30:45.052Z,17.40
2018-06-17T20:33:18.894Z,17.40
2018-06-17T20:35:52.632Z,17.40
2018-06-17T20:38:26.459Z,17.40
2018-06-17T20:41:00.261Z,17.40
2018-06-17T20:43:34.038Z,17.40
2018-06-17T20:46:02.513Z,17.40
2018-06-17T20:48:30.952Z,17.40
2018-06-17T20:53:27.805Z,17.40
2018-06-17T20:55:56.261Z,17.30
2018-06-17T20:58:24.710Z,17.40
2018-06-17T21:00:53.179Z,17.40
2018-06-17T21:03:21.691Z,17.20
2018-06-17T21:05:50.133Z,17.10
2018-06-17T21:10:46.721Z,16.90
2018-06-17T21:13:15.176Z,16.90
2018-06-17T21:15:43.654Z,16.80
2018-06-17T21:18:12.129Z,16.80
2018-06-17T21:23:19.306Z,16.70
2018-06-17T21:25:53.018Z,16.70
2018-06-17T21:28:21.481Z,16.60
2018-06-17T21:30:50.140Z,16.60
2018-06-17T21:33:18.620Z,16.60
2018-06-17T21:35:47.079Z,16.50
2018-06-17T21:38:15.550Z,16.60
2018-06-17T21:43:12.149Z,16.60
2018-06-17T21:45:40.638Z,16.60
2018-06-17T21:48:09.381Z,16.60
2018-06-17T21:50:37.822Z,16.60
2018-06-17T21:53:06.313Z,16.60
2018-06-17T21:55:34.767Z,16.60
2018-06-17T21:58:03.218Z,16.60
2018-06-17T22:00:31.704Z,16.70
2018-06-17T22:03:00.183Z,16.60
2018-06-17T22:05:28.682Z,16.60
2018-06-17T22:08:02.522Z,16.70
2018-06-17T22:10:36.412Z,16.70
2018-06-17T22:13:04.890Z,16.70
2018-06-17T22:15:38.928Z,16.60
2018-06-17T22:18:07.425Z,16.50
2018-06-17T22:20:35.888Z,16.50
2018-06-17T22:23:04.350Z,16.40
2018-06-17T22:25:32.885Z,16.30
2018-06-17T22:30:29.646Z,16.20
2018-06-17T22:32:58.077Z,16.20
2018-06-17T22:35:26.533Z,16.10
2018-06-17T22:37:54.996Z,16.00
2018-06-17T22:42:51.625Z,16.10
2018-06-17T22:45:20.064Z,16.10
2018-06-17T22:47:53.942Z,16.10
2018-06-17T22:53:02.069Z,16.00
2018-06-17T22:55:30.513Z,15.90
2018-06-17T22:58:04.223Z,15.80
2018-06-17T23:00:38.021Z,15.80
2018-06-17T23:03:12.016Z,15.90
2018-06-17T23:05:45.768Z,15.90
2018-06-17T23:08:19.510Z,15.90
2018-06-17T23:10:47.927Z,15.90
2018-06-17T23:13:16.392Z,15.90
2018-06-17T23:15:44.842Z,15.90
2018-06-17T23:18:13.265Z,16.10
2018-06-17T23:20:41.758Z,16.10
2018-06-17T23:23:10.226Z,16.00
2018-06-17T23:25:38.731Z,15.90
2018-06-17T23:28:07.436Z,15.90
2018-06-17T23:35:32.450Z,15.70
2018-06-17T23:38:00.906Z,15.80
2018-06-17T23:40:29.337Z,15.80
2018-06-17T23:42:57.814Z,15.80
2018-06-17T23:45:26.267Z,15.90
2018-06-17T23:47:59.989Z,15.90
2018-06-17T23:50:33.690Z,15.90
2018-06-17T23:53:07.631Z,15.90
2018-06-17T23:58:09.586Z,15.90
